This is the latest recevied weather packets stored in our database for station/object DL0GY-13. If no packets are shown the sender has not sent any weather packets the latest 10 day(s).
| Time | Temp. | Humidity | Pressure | Rain* | Wind** | Luminosity | Snow |
|---|---|---|---|---|---|---|---|
| 1777706433 | 27.78° C | 30% | 1018.3 hPa | 0 mm | - | - | - |
| 1777705833 | 28.33° C | 31% | 1018.3 hPa | 0 mm | - | - | - |
| 1777705233 | 27.78° C | 31% | 1018.5 hPa | 0 mm | - | - | - |
| 1777704633 | 27.78° C | 33% | 1018.8 hPa | 0 mm | - | - | - |
| 1777704033 | 27.22° C | 34% | 1018.9 hPa | 0 mm | - | - | - |
| 1777703433 | 28.89° C | 34% | 1018.6 hPa | 0 mm | - | - | - |
| 1777702833 | 27.22° C | 37% | 1018.5 hPa | 0 mm | - | - | - |
| 1777702233 | 26.11° C | 37% | 1018.4 hPa | 0 mm | - | - | - |
| 1777700433 | 22.78° C | 47% | 1018.7 hPa | 0 mm | - | - | - |
| 1777699233 | 20° C | 52% | 1018.5 hPa | 0 mm | - | - | - |
| 1777698633 | 18.33° C | 56% | 1018.4 hPa | 0 mm | - | - | - |
| 1777697433 | 14.44° C | 66% | 1018.4 hPa | 0 mm | - | - | - |
| 1777696833 | 11.67° C | 73% | 1018.5 hPa | 0 mm | - | - | - |
| 1777696233 | 10° C | 78% | 1018.6 hPa | 0 mm | - | - | - |
| 1777695634 | 7.78° C | 79% | 1018.8 hPa | 0 mm | - | - | - |
| 1777694433 | 7.22° C | 78% | 1018.8 hPa | 0 mm | - | - | - |
| 1777693833 | 7.22° C | 78% | 1018.9 hPa | 0 mm | - | - | - |
| 1777693234 | 7.78° C | 77% | 1019 hPa | 0 mm | - | - | - |
| 1777692633 | 7.78° C | 77% | 1018.9 hPa | 0 mm | - | - | - |
| 1777692033 | 7.78° C | 77% | 1019 hPa | 0 mm | - | - | - |
| 1777691434 | 8.33° C | 76% | 1018.9 hPa | 0 mm | - | - | - |
| 1777690833 | 8.33° C | 76% | 1019 hPa | 0 mm | - | - | - |
| 1777690233 | 8.33° C | 75% | 1019.3 hPa | 0 mm | - | - | - |
| 1777689634 | 8.33° C | 75% | 1019.2 hPa | 0 mm | - | - | - |
| 1777689034 | 8.89° C | 75% | 1019.3 hPa | 0 mm | - | - | - |
* Rain latest hour (hover to see other rain measurements)
** Current wind speed in m/s (hover to see current wind gust speed)